sensor_id;sensor_type;location;lat;lon;timestamp;P1;durP1;ratioP1;P2;durP2;ratioP2
27576;SDS011;15011;53.380;10.034;2023-11-18T00:02:20;7.68;;;4.43;;
27576;SDS011;15011;53.380;10.034;2023-11-18T00:07:20;7.77;;;4.30;;
27576;SDS011;15011;53.380;10.034;2023-11-18T00:12:20;7.00;;;4.10;;
27576;SDS011;15011;53.380;10.034;2023-11-18T00:17:24;7.53;;;4.28;;
27576;SDS011;15011;53.380;10.034;2023-11-18T00:22:24;6.20;;;3.95;;
27576;SDS011;15011;53.380;10.034;2023-11-18T00:27:25;4.77;;;3.77;;
27576;SDS011;15011;53.380;10.034;2023-11-18T00:32:25;6.47;;;3.80;;
27576;SDS011;15011;53.380;10.034;2023-11-18T00:37:26;6.20;;;3.73;;
27576;SDS011;15011;53.380;10.034;2023-11-18T00:42:26;6.72;;;4.28;;
27576;SDS011;15011;53.380;10.034;2023-11-18T00:47:27;6.95;;;4.32;;
27576;SDS011;15011;53.380;10.034;2023-11-18T00:52:30;8.30;;;4.50;;
27576;SDS011;15011;53.380;10.034;2023-11-18T00:57:30;8.32;;;5.20;;
27576;SDS011;15011;53.380;10.034;2023-11-18T01:02:31;7.53;;;4.82;;
27576;SDS011;15011;53.380;10.034;2023-11-18T01:07:32;7.38;;;4.57;;
27576;SDS011;15011;53.380;10.034;2023-11-18T01:12:32;7.63;;;4.97;;
27576;SDS011;15011;53.380;10.034;2023-11-18T01:17:33;9.40;;;4.95;;
27576;SDS011;15011;53.380;10.034;2023-11-18T01:22:34;7.23;;;4.40;;
27576;SDS011;15011;53.380;10.034;2023-11-18T01:27:35;7.03;;;4.72;;
27576;SDS011;15011;53.380;10.034;2023-11-18T01:32:35;11.97;;;6.47;;
27576;SDS011;15011;53.380;10.034;2023-11-18T01:37:35;7.77;;;4.40;;
27576;SDS011;15011;53.380;10.034;2023-11-18T01:42:36;8.30;;;5.07;;
27576;SDS011;15011;53.380;10.034;2023-11-18T01:47:37;7.85;;;5.10;;
27576;SDS011;15011;53.380;10.034;2023-11-18T01:52:38;7.22;;;4.72;;
27576;SDS011;15011;53.380;10.034;2023-11-18T01:57:39;7.43;;;4.47;;
27576;SDS011;15011;53.380;10.034;2023-11-18T02:02:43;8.07;;;4.47;;
27576;SDS011;15011;53.380;10.034;2023-11-18T02:07:44;8.77;;;4.60;;
27576;SDS011;15011;53.380;10.034;2023-11-18T02:12:49;8.48;;;4.72;;
27576;SDS011;15011;53.380;10.034;2023-11-18T02:17:54;6.85;;;4.22;;
27576;SDS011;15011;53.380;10.034;2023-11-18T02:22:57;8.20;;;5.10;;
27576;SDS011;15011;53.380;10.034;2023-11-18T02:27:59;8.15;;;4.57;;
27576;SDS011;15011;53.380;10.034;2023-11-18T02:38:35;8.43;;;4.75;;
27576;SDS011;15011;53.380;10.034;2023-11-18T02:43:40;8.02;;;4.32;;
27576;SDS011;15011;53.380;10.034;2023-11-18T02:48:41;11.40;;;4.78;;
27576;SDS011;15011;53.380;10.034;2023-11-18T02:53:44;7.97;;;4.40;;
27576;SDS011;15011;53.380;10.034;2023-11-18T02:58:45;7.35;;;4.10;;
27576;SDS011;15011;53.380;10.034;2023-11-18T03:03:45;8.53;;;4.87;;
27576;SDS011;15011;53.380;10.034;2023-11-18T03:08:46;7.83;;;4.00;;
27576;SDS011;15011;53.380;10.034;2023-11-18T03:13:46;8.43;;;4.50;;
27576;SDS011;15011;53.380;10.034;2023-11-18T03:18:46;7.93;;;4.60;;
27576;SDS011;15011;53.380;10.034;2023-11-18T03:23:48;7.35;;;3.65;;
27576;SDS011;15011;53.380;10.034;2023-11-18T03:28:49;8.93;;;4.57;;
27576;SDS011;15011;53.380;10.034;2023-11-18T03:33:49;8.80;;;4.53;;
27576;SDS011;15011;53.380;10.034;2023-11-18T03:38:50;7.68;;;4.95;;
27576;SDS011;15011;53.380;10.034;2023-11-18T03:43:50;8.03;;;4.80;;
27576;SDS011;15011;53.380;10.034;2023-11-18T03:48:51;7.53;;;4.33;;
27576;SDS011;15011;53.380;10.034;2023-11-18T03:53:51;8.30;;;4.73;;
27576;SDS011;15011;53.380;10.034;2023-11-18T03:58:53;9.23;;;5.10;;
27576;SDS011;15011;53.380;10.034;2023-11-18T04:03:53;8.38;;;4.93;;
27576;SDS011;15011;53.380;10.034;2023-11-18T04:08:54;7.50;;;4.63;;
27576;SDS011;15011;53.380;10.034;2023-11-18T04:13:55;9.82;;;4.93;;
27576;SDS011;15011;53.380;10.034;2023-11-18T04:18:55;9.05;;;5.05;;
27576;SDS011;15011;53.380;10.034;2023-11-18T04:23:55;8.57;;;4.95;;
27576;SDS011;15011;53.380;10.034;2023-11-18T04:28:56;9.00;;;4.53;;
27576;SDS011;15011;53.380;10.034;2023-11-18T04:33:56;8.73;;;4.78;;
27576;SDS011;15011;53.380;10.034;2023-11-18T04:38:57;9.23;;;5.03;;
27576;SDS011;15011;53.380;10.034;2023-11-18T04:43:58;10.60;;;5.00;;
27576;SDS011;15011;53.380;10.034;2023-11-18T04:48:58;12.15;;;5.75;;
27576;SDS011;15011;53.380;10.034;2023-11-18T04:53:59;8.13;;;5.13;;
27576;SDS011;15011;53.380;10.034;2023-11-18T04:59:00;5.93;;;3.97;;
27576;SDS011;15011;53.380;10.034;2023-11-18T05:04:02;9.93;;;5.10;;
27576;SDS011;15011;53.380;10.034;2023-11-18T05:09:02;9.47;;;5.23;;
27576;SDS011;15011;53.380;10.034;2023-11-18T05:14:07;10.73;;;5.75;;
27576;SDS011;15011;53.380;10.034;2023-11-18T05:19:08;8.15;;;4.55;;
27576;SDS011;15011;53.380;10.034;2023-11-18T05:24:08;9.48;;;5.18;;
27576;SDS011;15011;53.380;10.034;2023-11-18T05:29:09;8.87;;;5.03;;
27576;SDS011;15011;53.380;10.034;2023-11-18T05:34:10;9.15;;;4.93;;
27576;SDS011;15011;53.380;10.034;2023-11-18T05:39:10;11.23;;;5.57;;
27576;SDS011;15011;53.380;10.034;2023-11-18T05:44:11;9.02;;;5.80;;
27576;SDS011;15011;53.380;10.034;2023-11-18T05:49:17;10.52;;;5.30;;
27576;SDS011;15011;53.380;10.034;2023-11-18T05:54:18;12.18;;;5.65;;
27576;SDS011;15011;53.380;10.034;2023-11-18T05:59:18;9.77;;;5.82;;
27576;SDS011;15011;53.380;10.034;2023-11-18T06:04:19;10.30;;;5.30;;
27576;SDS011;15011;53.380;10.034;2023-11-18T06:09:20;12.02;;;6.13;;
27576;SDS011;15011;53.380;10.034;2023-11-18T06:14:21;12.53;;;5.53;;
27576;SDS011;15011;53.380;10.034;2023-11-18T06:19:22;12.07;;;6.32;;
27576;SDS011;15011;53.380;10.034;2023-11-18T06:24:25;12.77;;;6.32;;
27576;SDS011;15011;53.380;10.034;2023-11-18T06:34:26;11.52;;;6.22;;
27576;SDS011;15011;53.380;10.034;2023-11-18T06:39:27;13.93;;;6.53;;
27576;SDS011;15011;53.380;10.034;2023-11-18T06:44:29;9.95;;;5.82;;
27576;SDS011;15011;53.380;10.034;2023-11-18T06:49:30;12.90;;;5.77;;
27576;SDS011;15011;53.380;10.034;2023-11-18T06:54:34;13.85;;;6.63;;
27576;SDS011;15011;53.380;10.034;2023-11-18T06:59:34;10.67;;;5.67;;
27576;SDS011;15011;53.380;10.034;2023-11-18T07:04:35;10.20;;;6.20;;
27576;SDS011;15011;53.380;10.034;2023-11-18T07:09:35;11.73;;;5.60;;
27576;SDS011;15011;53.380;10.034;2023-11-18T07:14:36;10.70;;;5.45;;
27576;SDS011;15011;53.380;10.034;2023-11-18T07:19:36;11.07;;;5.07;;
27576;SDS011;15011;53.380;10.034;2023-11-18T07:24:37;11.93;;;6.00;;
27576;SDS011;15011;53.380;10.034;2023-11-18T07:29:37;9.47;;;4.70;;
27576;SDS011;15011;53.380;10.034;2023-11-18T07:34:38;12.37;;;5.73;;
27576;SDS011;15011;53.380;10.034;2023-11-18T07:39:39;10.18;;;4.68;;
27576;SDS011;15011;53.380;10.034;2023-11-18T07:44:48;8.85;;;4.65;;
27576;SDS011;15011;53.380;10.034;2023-11-18T07:49:48;12.33;;;4.70;;
27576;SDS011;15011;53.380;10.034;2023-11-18T07:54:49;12.00;;;5.22;;
27576;SDS011;15011;53.380;10.034;2023-11-18T07:59:49;9.67;;;4.70;;
27576;SDS011;15011;53.380;10.034;2023-11-18T08:04:51;13.05;;;5.22;;
27576;SDS011;15011;53.380;10.034;2023-11-18T08:09:52;9.35;;;4.65;;
27576;SDS011;15011;53.380;10.034;2023-11-18T08:14:52;11.27;;;4.85;;
27576;SDS011;15011;53.380;10.034;2023-11-18T08:19:53;9.88;;;4.70;;
27576;SDS011;15011;53.380;10.034;2023-11-18T08:24:53;11.50;;;5.20;;
27576;SDS011;15011;53.380;10.034;2023-11-18T08:29:53;7.27;;;4.43;;
27576;SDS011;15011;53.380;10.034;2023-11-18T08:34:54;11.00;;;5.82;;
27576;SDS011;15011;53.380;10.034;2023-11-18T08:39:55;11.88;;;5.60;;
27576;SDS011;15011;53.380;10.034;2023-11-18T08:44:56;11.05;;;5.45;;
27576;SDS011;15011;53.380;10.034;2023-11-18T08:49:58;11.20;;;4.78;;
27576;SDS011;15011;53.380;10.034;2023-11-18T08:55:10;12.80;;;5.40;;
27576;SDS011;15011;53.380;10.034;2023-11-18T09:00:21;10.75;;;5.28;;
27576;SDS011;15011;53.380;10.034;2023-11-18T09:05:41;8.30;;;5.07;;
27576;SDS011;15011;53.380;10.034;2023-11-18T09:10:43;7.60;;;4.88;;
27576;SDS011;15011;53.380;10.034;2023-11-18T09:15:43;9.47;;;5.17;;
27576;SDS011;15011;53.380;10.034;2023-11-18T09:20:44;7.22;;;4.05;;
27576;SDS011;15011;53.380;10.034;2023-11-18T09:25:47;8.25;;;4.72;;
27576;SDS011;15011;53.380;10.034;2023-11-18T09:30:47;8.10;;;4.38;;
27576;SDS011;15011;53.380;10.034;2023-11-18T09:35:53;6.35;;;3.83;;
27576;SDS011;15011;53.380;10.034;2023-11-18T09:40:59;9.27;;;4.72;;
27576;SDS011;15011;53.380;10.034;2023-11-18T09:46:04;6.20;;;3.53;;
27576;SDS011;15011;53.380;10.034;2023-11-18T09:51:55;6.10;;;3.72;;
27576;SDS011;15011;53.380;10.034;2023-11-18T09:56:44;8.35;;;4.85;;
27576;SDS011;15011;53.380;10.034;2023-11-18T10:01:57;3.85;;;2.67;;
27576;SDS011;15011;53.380;10.034;2023-11-18T10:06:58;5.00;;;3.50;;
27576;SDS011;15011;53.380;10.034;2023-11-18T10:11:59;4.25;;;2.90;;
27576;SDS011;15011;53.380;10.034;2023-11-18T10:17:05;3.78;;;2.70;;
27576;SDS011;15011;53.380;10.034;2023-11-18T10:22:18;3.05;;;2.00;;
27576;SDS011;15011;53.380;10.034;2023-11-18T10:27:26;4.22;;;2.42;;
27576;SDS011;15011;53.380;10.034;2023-11-18T10:32:27;5.75;;;2.80;;
27576;SDS011;15011;53.380;10.034;2023-11-18T10:37:28;4.93;;;3.00;;
27576;SDS011;15011;53.380;10.034;2023-11-18T10:42:30;5.90;;;2.90;;
27576;SDS011;15011;53.380;10.034;2023-11-18T10:47:34;4.18;;;2.75;;
27576;SDS011;15011;53.380;10.034;2023-11-18T10:52:39;5.07;;;3.08;;
27576;SDS011;15011;53.380;10.034;2023-11-18T10:57:40;3.28;;;2.72;;
27576;SDS011;15011;53.380;10.034;2023-11-18T11:02:42;4.40;;;2.60;;
27576;SDS011;15011;53.380;10.034;2023-11-18T11:07:42;3.47;;;2.50;;
27576;SDS011;15011;53.380;10.034;2023-11-18T11:12:44;3.03;;;1.92;;
27576;SDS011;15011;53.380;10.034;2023-11-18T11:17:52;2.20;;;1.80;;
27576;SDS011;15011;53.380;10.034;2023-11-18T11:28:10;3.50;;;1.98;;
27576;SDS011;15011;53.380;10.034;2023-11-18T11:38:29;3.28;;;2.10;;
27576;SDS011;15011;53.380;10.034;2023-11-18T11:43:32;3.58;;;1.77;;
27576;SDS011;15011;53.380;10.034;2023-11-18T11:48:34;2.60;;;1.75;;
27576;SDS011;15011;53.380;10.034;2023-11-18T11:53:36;3.10;;;1.88;;
27576;SDS011;15011;53.380;10.034;2023-11-18T11:58:45;3.75;;;2.53;;
27576;SDS011;15011;53.380;10.034;2023-11-18T12:03:46;3.63;;;1.60;;
27576;SDS011;15011;53.380;10.034;2023-11-18T12:08:47;1.75;;;1.65;;
27576;SDS011;15011;53.380;10.034;2023-11-18T12:19:31;3.13;;;2.15;;
27576;SDS011;15011;53.380;10.034;2023-11-18T12:29:58;2.27;;;1.50;;
27576;SDS011;15011;53.380;10.034;2023-11-18T12:35:00;2.47;;;1.70;;
27576;SDS011;15011;53.380;10.034;2023-11-18T12:40:17;1.90;;;1.55;;
27576;SDS011;15011;53.380;10.034;2023-11-18T12:50:53;4.82;;;1.92;;
27576;SDS011;15011;53.380;10.034;2023-11-18T13:00:56;4.43;;;3.07;;
27576;SDS011;15011;53.380;10.034;2023-11-18T13:05:56;4.43;;;2.57;;
27576;SDS011;15011;53.380;10.034;2023-11-18T13:10:56;3.03;;;2.27;;
27576;SDS011;15011;53.380;10.034;2023-11-18T13:16:03;2.90;;;1.92;;
27576;SDS011;15011;53.380;10.034;2023-11-18T13:21:03;3.70;;;2.47;;
27576;SDS011;15011;53.380;10.034;2023-11-18T13:26:04;5.20;;;2.60;;
27576;SDS011;15011;53.380;10.034;2023-11-18T13:31:09;4.22;;;1.90;;
27576;SDS011;15011;53.380;10.034;2023-11-18T13:36:10;4.07;;;2.70;;
27576;SDS011;15011;53.380;10.034;2023-11-18T13:41:11;3.42;;;2.53;;
27576;SDS011;15011;53.380;10.034;2023-11-18T13:46:13;4.88;;;2.88;;
27576;SDS011;15011;53.380;10.034;2023-11-18T13:51:14;8.48;;;3.70;;
27576;SDS011;15011;53.380;10.034;2023-11-18T13:56:17;7.28;;;4.78;;
27576;SDS011;15011;53.380;10.034;2023-11-18T14:01:21;6.03;;;4.30;;
27576;SDS011;15011;53.380;10.034;2023-11-18T14:06:22;4.70;;;3.25;;
27576;SDS011;15011;53.380;10.034;2023-11-18T14:11:22;7.22;;;3.85;;
27576;SDS011;15011;53.380;10.034;2023-11-18T14:16:24;8.15;;;4.97;;
27576;SDS011;15011;53.380;10.034;2023-11-18T14:26:29;5.75;;;2.80;;
27576;SDS011;15011;53.380;10.034;2023-11-18T14:31:31;6.50;;;3.15;;
27576;SDS011;15011;53.380;10.034;2023-11-18T14:36:32;8.27;;;4.45;;
27576;SDS011;15011;53.380;10.034;2023-11-18T14:41:32;7.20;;;3.80;;
27576;SDS011;15011;53.380;10.034;2023-11-18T14:46:33;7.80;;;4.15;;
27576;SDS011;15011;53.380;10.034;2023-11-18T14:51:34;7.65;;;4.20;;
27576;SDS011;15011;53.380;10.034;2023-11-18T14:56:35;8.98;;;4.57;;
27576;SDS011;15011;53.380;10.034;2023-11-18T15:01:36;10.57;;;4.50;;
27576;SDS011;15011;53.380;10.034;2023-11-18T15:06:37;7.83;;;4.53;;
27576;SDS011;15011;53.380;10.034;2023-11-18T15:11:37;8.90;;;4.88;;
27576;SDS011;15011;53.380;10.034;2023-11-18T15:16:38;9.70;;;4.40;;
27576;SDS011;15011;53.380;10.034;2023-11-18T15:21:38;9.33;;;4.77;;
27576;SDS011;15011;53.380;10.034;2023-11-18T15:26:38;9.97;;;5.07;;
27576;SDS011;15011;53.380;10.034;2023-11-18T15:31:39;8.77;;;4.37;;
27576;SDS011;15011;53.380;10.034;2023-11-18T15:36:42;9.63;;;4.33;;
27576;SDS011;15011;53.380;10.034;2023-11-18T15:41:42;6.32;;;4.00;;
27576;SDS011;15011;53.380;10.034;2023-11-18T15:46:47;7.88;;;3.55;;
27576;SDS011;15011;53.380;10.034;2023-11-18T15:51:47;8.40;;;4.07;;
27576;SDS011;15011;53.380;10.034;2023-11-18T15:56:48;6.60;;;3.50;;
27576;SDS011;15011;53.380;10.034;2023-11-18T16:01:48;8.47;;;4.73;;
27576;SDS011;15011;53.380;10.034;2023-11-18T16:06:49;6.57;;;4.30;;
27576;SDS011;15011;53.380;10.034;2023-11-18T16:11:50;6.80;;;4.28;;
27576;SDS011;15011;53.380;10.034;2023-11-18T16:16:50;8.13;;;4.03;;
27576;SDS011;15011;53.380;10.034;2023-11-18T16:21:51;9.53;;;4.03;;
27576;SDS011;15011;53.380;10.034;2023-11-18T16:26:53;10.38;;;4.47;;
27576;SDS011;15011;53.380;10.034;2023-11-18T16:31:54;9.45;;;5.85;;
27576;SDS011;15011;53.380;10.034;2023-11-18T16:36:54;13.65;;;6.50;;
27576;SDS011;15011;53.380;10.034;2023-11-18T16:46:56;11.25;;;5.68;;
27576;SDS011;15011;53.380;10.034;2023-11-18T16:51:57;13.90;;;7.43;;
27576;SDS011;15011;53.380;10.034;2023-11-18T16:56:57;16.02;;;7.30;;
27576;SDS011;15011;53.380;10.034;2023-11-18T17:01:58;14.13;;;7.10;;
27576;SDS011;15011;53.380;10.034;2023-11-18T17:06:58;17.33;;;8.03;;
27576;SDS011;15011;53.380;10.034;2023-11-18T17:11:59;16.48;;;7.57;;
27576;SDS011;15011;53.380;10.034;2023-11-18T17:16:59;11.90;;;7.13;;
27576;SDS011;15011;53.380;10.034;2023-11-18T17:22:00;18.58;;;9.20;;
27576;SDS011;15011;53.380;10.034;2023-11-18T17:27:04;18.30;;;10.20;;
27576;SDS011;15011;53.380;10.034;2023-11-18T17:32:04;18.23;;;8.68;;
27576;SDS011;15011;53.380;10.034;2023-11-18T17:37:05;15.18;;;8.20;;
27576;SDS011;15011;53.380;10.034;2023-11-18T17:42:08;17.02;;;9.05;;
27576;SDS011;15011;53.380;10.034;2023-11-18T17:47:08;15.77;;;7.93;;
27576;SDS011;15011;53.380;10.034;2023-11-18T17:57:10;19.52;;;8.40;;
27576;SDS011;15011;53.380;10.034;2023-11-18T18:02:11;15.13;;;8.43;;
27576;SDS011;15011;53.380;10.034;2023-11-18T18:07:12;20.55;;;8.85;;
27576;SDS011;15011;53.380;10.034;2023-11-18T18:12:13;17.45;;;8.23;;
27576;SDS011;15011;53.380;10.034;2023-11-18T18:17:13;20.70;;;8.63;;
27576;SDS011;15011;53.380;10.034;2023-11-18T18:22:14;16.38;;;8.98;;
27576;SDS011;15011;53.380;10.034;2023-11-18T18:27:15;20.02;;;9.18;;
27576;SDS011;15011;53.380;10.034;2023-11-18T18:32:16;17.42;;;8.55;;
27576;SDS011;15011;53.380;10.034;2023-11-18T18:37:17;19.98;;;8.85;;
27576;SDS011;15011;53.380;10.034;2023-11-18T18:42:18;19.02;;;8.38;;
27576;SDS011;15011;53.380;10.034;2023-11-18T18:47:20;15.95;;;7.43;;
27576;SDS011;15011;53.380;10.034;2023-11-18T18:52:21;17.60;;;7.90;;
27576;SDS011;15011;53.380;10.034;2023-11-18T18:57:21;18.90;;;9.23;;
27576;SDS011;15011;53.380;10.034;2023-11-18T19:02:22;19.90;;;9.27;;
27576;SDS011;15011;53.380;10.034;2023-11-18T19:07:22;20.57;;;8.87;;
27576;SDS011;15011;53.380;10.034;2023-11-18T19:12:23;22.92;;;9.13;;
27576;SDS011;15011;53.380;10.034;2023-11-18T19:17:23;19.10;;;8.90;;
27576;SDS011;15011;53.380;10.034;2023-11-18T19:22:24;18.93;;;8.23;;
27576;SDS011;15011;53.380;10.034;2023-11-18T19:27:24;20.63;;;8.90;;
27576;SDS011;15011;53.380;10.034;2023-11-18T19:32:25;24.20;;;9.70;;
27576;SDS011;15011;53.380;10.034;2023-11-18T19:37:25;17.27;;;8.10;;
27576;SDS011;15011;53.380;10.034;2023-11-18T19:42:26;21.90;;;9.23;;
27576;SDS011;15011;53.380;10.034;2023-11-18T19:47:28;20.73;;;9.38;;
27576;SDS011;15011;53.380;10.034;2023-11-18T19:52:29;21.33;;;9.43;;
27576;SDS011;15011;53.380;10.034;2023-11-18T19:57:30;20.15;;;9.63;;
27576;SDS011;15011;53.380;10.034;2023-11-18T20:02:31;18.43;;;8.67;;
27576;SDS011;15011;53.380;10.034;2023-11-18T20:07:31;21.13;;;8.50;;
27576;SDS011;15011;53.380;10.034;2023-11-18T20:12:31;21.43;;;8.27;;
27576;SDS011;15011;53.380;10.034;2023-11-18T20:17:32;19.20;;;8.10;;
27576;SDS011;15011;53.380;10.034;2023-11-18T20:22:32;21.93;;;8.70;;
27576;SDS011;15011;53.380;10.034;2023-11-18T20:27:35;18.10;;;8.30;;
27576;SDS011;15011;53.380;10.034;2023-11-18T20:32:35;17.30;;;7.93;;
27576;SDS011;15011;53.380;10.034;2023-11-18T20:37:37;25.67;;;9.30;;
27576;SDS011;15011;53.380;10.034;2023-11-18T20:42:38;17.63;;;8.63;;
27576;SDS011;15011;53.380;10.034;2023-11-18T20:47:40;18.48;;;8.38;;
27576;SDS011;15011;53.380;10.034;2023-11-18T20:52:41;17.63;;;7.93;;
27576;SDS011;15011;53.380;10.034;2023-11-18T20:57:42;17.65;;;8.02;;
27576;SDS011;15011;53.380;10.034;2023-11-18T21:02:44;14.70;;;6.90;;
27576;SDS011;15011;53.380;10.034;2023-11-18T21:07:46;14.30;;;7.40;;
27576;SDS011;15011;53.380;10.034;2023-11-18T21:12:47;17.35;;;7.55;;
27576;SDS011;15011;53.380;10.034;2023-11-18T21:17:48;17.43;;;8.00;;
27576;SDS011;15011;53.380;10.034;2023-11-18T21:22:50;14.38;;;6.90;;
27576;SDS011;15011;53.380;10.034;2023-11-18T21:32:52;12.32;;;6.18;;
27576;SDS011;15011;53.380;10.034;2023-11-18T21:37:55;18.05;;;8.00;;
27576;SDS011;15011;53.380;10.034;2023-11-18T21:42:55;17.77;;;7.47;;
27576;SDS011;15011;53.380;10.034;2023-11-18T21:47:56;14.05;;;6.18;;
27576;SDS011;15011;53.380;10.034;2023-11-18T21:53:00;12.05;;;5.82;;
27576;SDS011;15011;53.380;10.034;2023-11-18T21:58:02;12.77;;;5.88;;
27576;SDS011;15011;53.380;10.034;2023-11-18T22:03:02;11.77;;;5.13;;
27576;SDS011;15011;53.380;10.034;2023-11-18T22:08:03;12.02;;;5.10;;
27576;SDS011;15011;53.380;10.034;2023-11-18T22:13:03;9.63;;;4.77;;
27576;SDS011;15011;53.380;10.034;2023-11-18T22:18:06;9.57;;;4.65;;
27576;SDS011;15011;53.380;10.034;2023-11-18T22:28:10;7.13;;;3.75;;
27576;SDS011;15011;53.380;10.034;2023-11-18T22:33:13;7.50;;;4.13;;
27576;SDS011;15011;53.380;10.034;2023-11-18T22:38:14;8.75;;;4.00;;
27576;SDS011;15011;53.380;10.034;2023-11-18T22:43:15;7.70;;;4.00;;
27576;SDS011;15011;53.380;10.034;2023-11-18T22:48:16;6.03;;;3.53;;
27576;SDS011;15011;53.380;10.034;2023-11-18T22:53:17;6.40;;;3.53;;
27576;SDS011;15011;53.380;10.034;2023-11-18T22:58:17;9.07;;;3.50;;
27576;SDS011;15011;53.380;10.034;2023-11-18T23:03:18;9.87;;;3.83;;
27576;SDS011;15011;53.380;10.034;2023-11-18T23:08:18;6.05;;;4.05;;
27576;SDS011;15011;53.380;10.034;2023-11-18T23:13:21;6.38;;;3.45;;
27576;SDS011;15011;53.380;10.034;2023-11-18T23:18:24;6.28;;;3.33;;
27576;SDS011;15011;53.380;10.034;2023-11-18T23:23:25;7.95;;;3.58;;
27576;SDS011;15011;53.380;10.034;2023-11-18T23:28:26;6.13;;;3.30;;
27576;SDS011;15011;53.380;10.034;2023-11-18T23:33:30;6.18;;;3.50;;
27576;SDS011;15011;53.380;10.034;2023-11-18T23:38:31;4.15;;;2.92;;
27576;SDS011;15011;53.380;10.034;2023-11-18T23:43:31;6.97;;;3.20;;
27576;SDS011;15011;53.380;10.034;2023-11-18T23:48:34;5.88;;;2.50;;
27576;SDS011;15011;53.380;10.034;2023-11-18T23:53:38;4.45;;;2.22;;
27576;SDS011;15011;53.380;10.034;2023-11-18T23:58:39;6.22;;;3.35;;
